createdAt,value
2017-08-27T00:00:57.640Z,80.72
2017-08-27T00:03:23.410Z,80.89
2017-08-27T00:05:49.184Z,80.78
2017-08-27T00:08:14.935Z,81.79
2017-08-27T00:10:40.724Z,81.86
2017-08-27T00:13:06.468Z,83.46
2017-08-27T00:15:32.256Z,82.94
2017-08-27T00:17:58.040Z,82.51
2017-08-27T00:20:23.787Z,82.31
2017-08-27T00:22:50.623Z,81.95
2017-08-27T00:25:16.409Z,81.70
2017-08-27T00:27:42.174Z,81.92
2017-08-27T00:30:07.975Z,83.23
2017-08-27T00:32:33.769Z,82.40
2017-08-27T00:34:59.618Z,82.27
2017-08-27T00:37:25.380Z,82.72
2017-08-27T00:39:51.166Z,82.36
2017-08-27T00:42:16.918Z,82.82
2017-08-27T00:44:42.671Z,83.07
2017-08-27T00:47:08.452Z,83.14
2017-08-27T00:49:34.216Z,82.40
2017-08-27T00:52:00.008Z,83.52
2017-08-27T00:54:25.759Z,83.67
2017-08-27T00:56:51.592Z,83.24
2017-08-27T00:59:17.339Z,82.97
2017-08-27T01:01:43.104Z,82.41
2017-08-27T01:04:08.900Z,82.23
2017-08-27T01:06:34.701Z,82.97
2017-08-27T01:09:00.455Z,83.64
2017-08-27T01:11:26.268Z,82.91
2017-08-27T01:13:52.127Z,82.67
2017-08-27T01:16:17.894Z,82.75
2017-08-27T01:18:43.674Z,82.91
2017-08-27T01:21:09.435Z,83.20
2017-08-27T01:23:35.244Z,83.44
2017-08-27T01:26:01.032Z,83.52
2017-08-27T01:28:26.815Z,83.18
2017-08-27T01:30:52.563Z,83.08
2017-08-27T01:33:18.303Z,82.96
2017-08-27T01:35:44.077Z,83.31
2017-08-27T01:38:09.863Z,83.26
2017-08-27T01:40:35.611Z,83.43
2017-08-27T01:43:01.359Z,84.43
2017-08-27T01:45:27.411Z,83.92
2017-08-27T01:47:53.180Z,83.99
2017-08-27T01:50:18.943Z,83.10
2017-08-27T01:52:44.730Z,82.84
2017-08-27T01:55:10.483Z,83.27
2017-08-27T01:57:36.288Z,83.03
2017-08-27T02:00:02.090Z,83.88
2017-08-27T02:02:27.834Z,84.97
2017-08-27T02:04:53.603Z,83.50
2017-08-27T02:07:19.370Z,83.51
2017-08-27T02:09:45.153Z,83.51
2017-08-27T02:12:10.918Z,83.50
2017-08-27T02:14:36.669Z,83.54
2017-08-27T02:17:02.470Z,83.73
2017-08-27T02:19:28.243Z,82.92
2017-08-27T02:21:54.056Z,83.88
2017-08-27T02:24:19.786Z,83.72
2017-08-27T02:26:45.540Z,83.81
2017-08-27T02:29:11.315Z,84.37
2017-08-27T02:31:37.063Z,83.90
2017-08-27T02:34:02.836Z,83.71
2017-08-27T02:36:28.578Z,83.46
2017-08-27T02:38:54.332Z,83.88
2017-08-27T02:41:20.111Z,84.21
2017-08-27T02:43:45.870Z,83.73
2017-08-27T02:46:11.612Z,83.45
2017-08-27T02:48:37.390Z,84.04
2017-08-27T02:51:03.136Z,83.44
2017-08-27T02:53:28.930Z,83.85
2017-08-27T02:55:54.675Z,83.87
2017-08-27T02:58:20.419Z,83.91
2017-08-27T03:00:46.295Z,83.61
2017-08-27T03:03:12.061Z,83.62
2017-08-27T03:05:37.848Z,83.65
2017-08-27T03:08:03.590Z,83.85
2017-08-27T03:10:29.375Z,83.35
2017-08-27T03:12:55.223Z,83.40
2017-08-27T03:15:20.982Z,84.32
2017-08-27T03:17:46.730Z,84.70
2017-08-27T03:20:12.516Z,84.77
2017-08-27T03:22:38.272Z,84.05
2017-08-27T03:25:04.080Z,84.17
2017-08-27T03:27:29.851Z,85.24
2017-08-27T03:29:55.598Z,86.07
2017-08-27T03:32:21.387Z,85.10
2017-08-27T03:34:47.160Z,84.79
2017-08-27T03:37:12.936Z,84.65
2017-08-27T03:39:38.723Z,84.75
2017-08-27T03:42:04.519Z,85.01
2017-08-27T03:44:30.271Z,85.36
2017-08-27T03:46:56.023Z,84.66
2017-08-27T03:49:21.843Z,84.08
2017-08-27T03:51:47.610Z,84.35
2017-08-27T03:54:14.351Z,84.89
2017-08-27T03:56:40.137Z,84.94
2017-08-27T03:59:05.895Z,84.85
2017-08-27T04:01:31.658Z,84.93
2017-08-27T04:03:57.446Z,85.01
2017-08-27T04:06:23.228Z,84.63
2017-08-27T04:08:49.021Z,84.49
2017-08-27T04:11:14.816Z,84.56
2017-08-27T04:13:40.559Z,85.65
2017-08-27T04:16:06.308Z,86.74
2017-08-27T04:18:32.086Z,84.55
2017-08-27T04:20:57.834Z,84.81
2017-08-27T04:23:23.577Z,85.17
2017-08-27T04:25:49.350Z,85.64
2017-08-27T04:28:15.125Z,84.77
2017-08-27T04:30:40.935Z,84.77
2017-08-27T04:33:06.675Z,85.21
2017-08-27T04:35:32.443Z,85.25
2017-08-27T04:37:58.227Z,85.50
2017-08-27T04:40:24.006Z,85.04
2017-08-27T04:42:49.843Z,85.29
2017-08-27T04:45:15.615Z,85.37
2017-08-27T04:47:41.448Z,85.71
2017-08-27T04:50:07.251Z,84.66
2017-08-27T04:52:33.049Z,84.67
2017-08-27T04:54:58.864Z,85.30
2017-08-27T04:57:24.639Z,85.87
2017-08-27T04:59:50.472Z,85.44
2017-08-27T05:02:16.258Z,86.48
2017-08-27T05:04:42.016Z,86.24
2017-08-27T05:07:07.802Z,86.94
2017-08-27T05:09:33.595Z,86.09
2017-08-27T05:11:59.372Z,86.22
2017-08-27T05:14:25.234Z,85.43
2017-08-27T05:16:50.984Z,86.24
2017-08-27T05:19:16.748Z,86.61
2017-08-27T05:21:42.643Z,86.73
2017-08-27T05:24:08.387Z,84.81
2017-08-27T05:26:34.126Z,84.27
2017-08-27T05:29:00.000Z,85.54
2017-08-27T05:31:25.761Z,86.15
2017-08-27T05:33:51.547Z,84.72
2017-08-27T05:36:17.328Z,82.39
2017-08-27T05:38:43.206Z,84.92
2017-08-27T05:41:09.049Z,84.43
2017-08-27T05:43:34.804Z,84.75
2017-08-27T05:46:00.592Z,84.99
2017-08-27T05:48:26.399Z,84.72
2017-08-27T05:50:52.140Z,84.22
2017-08-27T05:53:17.974Z,84.58
2017-08-27T05:55:43.720Z,84.08
2017-08-27T05:58:09.483Z,84.96
2017-08-27T06:00:35.291Z,84.52
2017-08-27T06:03:01.038Z,84.52
2017-08-27T06:05:26.855Z,84.83
2017-08-27T06:07:52.710Z,84.27
2017-08-27T06:10:18.498Z,84.50
2017-08-27T06:12:44.362Z,84.18
2017-08-27T06:15:10.135Z,82.23
2017-08-27T06:17:35.953Z,82.00
2017-08-27T06:20:01.819Z,81.41
2017-08-27T06:22:27.607Z,83.37
2017-08-27T06:24:53.462Z,83.52
2017-08-27T06:27:19.279Z,84.29
2017-08-27T06:29:45.063Z,82.40
2017-08-27T06:32:10.918Z,82.71
2017-08-27T06:34:36.691Z,82.17
2017-08-27T06:37:02.486Z,81.40
2017-08-27T06:39:28.311Z,79.66
2017-08-27T06:41:54.224Z,79.03
2017-08-27T06:44:20.644Z,79.77
2017-08-27T06:46:46.415Z,82.69
2017-08-27T06:49:12.168Z,81.15
2017-08-27T06:51:37.938Z,80.35
2017-08-27T06:54:03.752Z,78.95
2017-08-27T06:56:29.519Z,77.56
2017-08-27T06:58:55.327Z,75.95
2017-08-27T07:01:21.098Z,74.71
2017-08-27T07:03:46.974Z,73.99
2017-08-27T07:06:12.738Z,74.03
2017-08-27T07:08:38.539Z,74.35
2017-08-27T07:11:04.311Z,75.70
2017-08-27T07:13:30.070Z,75.67
2017-08-27T07:15:55.842Z,75.09
2017-08-27T07:18:21.590Z,74.71
2017-08-27T07:20:47.343Z,75.44
2017-08-27T07:23:13.193Z,76.22
2017-08-27T07:25:38.967Z,75.22
2017-08-27T07:28:04.710Z,74.13
2017-08-27T07:30:30.491Z,74.37
2017-08-27T07:32:56.238Z,73.24
2017-08-27T07:35:22.013Z,73.29
2017-08-27T07:37:47.787Z,73.19
2017-08-27T07:40:13.542Z,72.85
2017-08-27T07:42:39.310Z,72.06
2017-08-27T07:45:05.087Z,72.56
2017-08-27T07:47:30.877Z,71.23
2017-08-27T07:49:56.630Z,70.37
2017-08-27T07:52:22.379Z,67.02
2017-08-27T07:54:48.804Z,65.29
2017-08-27T07:57:14.626Z,65.80
2017-08-27T07:59:40.459Z,62.68
2017-08-27T08:02:06.215Z,62.25
2017-08-27T08:04:31.963Z,60.30
2017-08-27T08:06:57.763Z,56.68
2017-08-27T08:09:23.511Z,58.22
2017-08-27T08:11:49.262Z,58.62
2017-08-27T08:14:15.127Z,58.88
2017-08-27T08:16:40.862Z,57.77
2017-08-27T08:19:06.599Z,58.85
2017-08-27T08:21:32.399Z,57.84
2017-08-27T08:23:58.151Z,59.25
2017-08-27T08:26:23.932Z,60.12
2017-08-27T08:28:49.693Z,60.20
2017-08-27T08:31:15.708Z,60.08
2017-08-27T08:33:41.459Z,60.09
2017-08-27T08:36:07.249Z,57.68
2017-08-27T08:38:33.004Z,60.14
2017-08-27T08:40:58.781Z,61.96
2017-08-27T08:43:24.547Z,62.97
2017-08-27T08:45:50.302Z,63.38
2017-08-27T08:48:16.038Z,63.57
2017-08-27T08:50:41.826Z,66.34
2017-08-27T08:53:07.635Z,67.94
2017-08-27T08:55:33.378Z,69.51
2017-08-27T08:57:59.151Z,69.24
2017-08-27T09:00:24.910Z,69.27
2017-08-27T09:02:50.690Z,68.77
2017-08-27T09:05:16.464Z,67.10
2017-08-27T09:07:42.259Z,66.02
2017-08-27T09:10:08.007Z,66.76
2017-08-27T09:12:33.805Z,67.11
2017-08-27T09:14:59.557Z,67.61
2017-08-27T09:17:25.359Z,65.53
2017-08-27T09:19:51.130Z,65.02
2017-08-27T09:22:16.882Z,65.27
2017-08-27T09:24:42.644Z,65.73
2017-08-27T09:27:08.384Z,64.41
2017-08-27T09:29:34.154Z,59.65
2017-08-27T09:31:59.902Z,57.82
2017-08-27T09:34:25.651Z,55.77
2017-08-27T09:36:51.424Z,53.81
2017-08-27T09:39:17.190Z,56.33
2017-08-27T09:41:42.991Z,57.93
2017-08-27T09:44:08.746Z,59.42
2017-08-27T09:46:34.502Z,55.43
2017-08-27T09:49:00.323Z,56.28
2017-08-27T09:51:26.067Z,54.12
2017-08-27T09:53:51.834Z,51.78
2017-08-27T09:56:17.592Z,49.71
2017-08-27T09:58:43.359Z,48.15
2017-08-27T10:01:09.143Z,46.56
2017-08-27T10:03:34.898Z,50.13
2017-08-27T10:06:00.652Z,50.39
2017-08-27T10:08:26.443Z,49.82
2017-08-27T10:10:52.200Z,53.99
2017-08-27T10:13:17.990Z,50.08
2017-08-27T10:15:43.735Z,51.14
2017-08-27T10:18:09.522Z,49.53
2017-08-27T10:20:35.262Z,50.12
2017-08-27T10:23:01.007Z,48.71
2017-08-27T10:25:26.802Z,49.47
2017-08-27T10:27:52.545Z,49.80
2017-08-27T10:30:18.343Z,50.78
2017-08-27T10:32:44.131Z,50.54
2017-08-27T10:35:09.874Z,51.53
2017-08-27T10:37:35.623Z,52.67
2017-08-27T10:40:01.415Z,54.49
2017-08-27T10:42:27.255Z,51.73
2017-08-27T10:44:53.014Z,51.41
2017-08-27T10:47:18.831Z,48.92
2017-08-27T10:49:44.579Z,49.80
2017-08-27T10:52:10.326Z,48.70
2017-08-27T10:54:36.120Z,48.79
2017-08-27T10:57:01.947Z,50.85
2017-08-27T10:59:27.787Z,48.79
2017-08-27T11:01:53.586Z,47.59
2017-08-27T11:04:19.374Z,47.31
2017-08-27T11:06:45.130Z,48.01
2017-08-27T11:09:10.869Z,46.98
2017-08-27T11:11:36.643Z,47.14
2017-08-27T11:14:02.392Z,44.36
2017-08-27T11:16:28.176Z,46.15
2017-08-27T11:18:53.919Z,46.29
2017-08-27T11:21:19.701Z,46.13
2017-08-27T11:23:45.531Z,44.91
2017-08-27T11:26:11.334Z,46.92
2017-08-27T11:28:37.089Z,46.23
2017-08-27T11:31:02.861Z,46.61
2017-08-27T11:33:28.638Z,49.09
2017-08-27T11:35:54.410Z,48.87
2017-08-27T11:38:20.159Z,47.79
2017-08-27T11:40:45.932Z,48.63
2017-08-27T11:43:11.675Z,51.21
2017-08-27T11:45:37.456Z,48.49
2017-08-27T11:48:03.199Z,49.66
2017-08-27T11:50:28.994Z,49.06
2017-08-27T11:52:54.775Z,49.41
2017-08-27T11:55:20.515Z,47.88
2017-08-27T11:57:46.285Z,51.39
2017-08-27T12:00:12.061Z,52.83
2017-08-27T12:02:37.836Z,52.45
2017-08-27T12:05:03.585Z,53.20
2017-08-27T12:07:29.395Z,51.75
2017-08-27T12:09:55.147Z,51.19
2017-08-27T12:12:20.930Z,52.34
2017-08-27T12:14:46.673Z,50.02
2017-08-27T12:17:12.423Z,51.92
2017-08-27T12:19:38.224Z,50.19
2017-08-27T12:22:04.038Z,49.75
2017-08-27T12:24:29.811Z,51.43
2017-08-27T12:26:55.560Z,51.48
2017-08-27T12:29:21.360Z,50.53
2017-08-27T12:31:47.103Z,48.50
2017-08-27T12:34:12.922Z,49.88
2017-08-27T12:36:38.707Z,47.13
2017-08-27T12:39:04.506Z,49.28
2017-08-27T12:41:30.314Z,48.67
2017-08-27T12:43:56.081Z,49.94
2017-08-27T12:46:21.879Z,49.46
2017-08-27T12:48:47.718Z,52.89
2017-08-27T12:51:13.468Z,50.35
2017-08-27T12:53:39.215Z,50.20
2017-08-27T12:56:05.006Z,48.54
2017-08-27T12:58:30.747Z,49.53
2017-08-27T13:00:56.601Z,48.67
2017-08-27T13:03:22.371Z,47.46
2017-08-27T13:05:48.166Z,46.82
2017-08-27T13:08:13.914Z,46.21
2017-08-27T13:10:39.678Z,43.28
2017-08-27T13:13:05.467Z,45.04
2017-08-27T13:15:31.214Z,44.97
2017-08-27T13:17:57.064Z,45.10
2017-08-27T13:20:22.845Z,49.08
2017-08-27T13:22:48.689Z,47.77
2017-08-27T13:25:14.559Z,47.18
2017-08-27T13:27:40.302Z,44.78
2017-08-27T13:30:06.087Z,42.36
2017-08-27T13:32:31.839Z,44.61
2017-08-27T13:34:57.670Z,49.31
2017-08-27T13:37:23.424Z,45.48
2017-08-27T13:39:49.167Z,44.54
2017-08-27T13:42:14.935Z,42.55
2017-08-27T13:44:40.687Z,41.61
2017-08-27T13:47:06.490Z,42.99
2017-08-27T13:49:32.243Z,44.01
2017-08-27T13:51:58.035Z,43.50
2017-08-27T13:54:23.776Z,45.42
2017-08-27T13:56:49.531Z,45.51
2017-08-27T13:59:15.306Z,47.05
2017-08-27T14:01:41.105Z,48.37
2017-08-27T14:04:06.891Z,49.86
2017-08-27T14:06:32.631Z,51.43
2017-08-27T14:08:58.399Z,50.66
2017-08-27T14:11:24.142Z,51.20
2017-08-27T14:13:49.972Z,53.25
2017-08-27T14:16:15.726Z,54.14
2017-08-27T14:18:41.907Z,54.60
2017-08-27T14:21:07.692Z,54.53
2017-08-27T14:23:33.570Z,53.66
2017-08-27T14:25:59.391Z,54.46
2017-08-27T14:28:25.143Z,53.97
2017-08-27T14:30:50.890Z,52.38
2017-08-27T14:33:16.671Z,52.60
2017-08-27T14:35:42.416Z,51.57
2017-08-27T14:38:08.291Z,48.68
2017-08-27T14:40:34.079Z,48.70
2017-08-27T14:42:59.819Z,50.62
2017-08-27T14:45:25.635Z,48.64
2017-08-27T14:47:51.464Z,48.31
2017-08-27T14:50:17.244Z,45.96
2017-08-27T14:52:43.021Z,47.50
2017-08-27T14:55:08.771Z,46.63
2017-08-27T14:57:34.544Z,46.54
2017-08-27T15:00:00.292Z,46.96
2017-08-27T15:02:26.198Z,48.73
2017-08-27T15:04:52.048Z,51.14
2017-08-27T15:07:17.798Z,51.08
2017-08-27T15:09:43.658Z,51.17
2017-08-27T15:12:09.400Z,54.25
2017-08-27T15:14:35.142Z,52.22
2017-08-27T15:17:00.961Z,51.21
2017-08-27T15:19:26.791Z,51.48
2017-08-27T15:21:52.567Z,52.52
2017-08-27T15:24:18.355Z,53.04
2017-08-27T15:26:44.186Z,53.75
2017-08-27T15:29:09.935Z,53.35
2017-08-27T15:31:35.674Z,51.49
2017-08-27T15:34:01.487Z,50.65
2017-08-27T15:36:27.234Z,47.54
2017-08-27T15:38:52.975Z,45.34
2017-08-27T15:41:18.759Z,46.90
2017-08-27T15:43:44.531Z,48.56
2017-08-27T15:46:10.305Z,51.09
2017-08-27T15:48:36.079Z,54.38
2017-08-27T15:51:01.950Z,57.15
2017-08-27T15:53:27.718Z,57.65
2017-08-27T15:55:53.478Z,56.17
2017-08-27T15:58:19.264Z,57.19
2017-08-27T16:00:45.034Z,56.47
2017-08-27T16:03:10.855Z,56.59
2017-08-27T16:05:36.658Z,55.89
2017-08-27T16:08:02.432Z,55.36
2017-08-27T16:10:28.244Z,53.56
2017-08-27T16:12:53.987Z,51.47
2017-08-27T16:15:19.747Z,50.06
2017-08-27T16:17:45.598Z,51.00
2017-08-27T16:20:11.387Z,51.12
2017-08-27T16:22:37.195Z,51.85
2017-08-27T16:25:02.958Z,49.33
2017-08-27T16:27:28.791Z,49.91
2017-08-27T16:29:54.581Z,50.23
2017-08-27T16:32:20.449Z,50.59
2017-08-27T16:34:46.228Z,50.75
2017-08-27T16:37:12.015Z,50.15
2017-08-27T16:39:37.818Z,50.99
2017-08-27T16:42:03.596Z,50.65
2017-08-27T16:44:29.370Z,51.02
2017-08-27T16:47:07.637Z,50.98
2017-08-27T16:49:33.420Z,52.27
2017-08-27T16:51:59.178Z,51.39
2017-08-27T16:54:24.967Z,51.93
2017-08-27T16:56:50.712Z,53.12
2017-08-27T16:59:16.452Z,53.50
2017-08-27T17:01:42.218Z,54.08
2017-08-27T17:04:07.972Z,54.95
2017-08-27T17:06:33.807Z,55.93
2017-08-27T17:08:59.575Z,56.26
2017-08-27T17:11:25.355Z,56.38
2017-08-27T17:13:51.139Z,57.04
2017-08-27T17:16:16.943Z,57.49
2017-08-27T17:18:42.714Z,57.38
2017-08-27T17:21:08.471Z,57.66
2017-08-27T17:23:34.287Z,58.46
2017-08-27T17:26:00.051Z,59.09
2017-08-27T17:28:25.820Z,59.57
2017-08-27T17:30:51.647Z,59.12
2017-08-27T17:33:17.431Z,59.90
2017-08-27T17:35:43.209Z,60.08
2017-08-27T17:38:08.990Z,60.87
2017-08-27T17:40:34.751Z,61.04
2017-08-27T17:43:00.558Z,61.15
2017-08-27T17:45:26.336Z,61.28
2017-08-27T17:47:52.124Z,61.96
2017-08-27T17:50:17.919Z,62.27
2017-08-27T17:52:43.714Z,61.86
2017-08-27T17:55:09.515Z,62.12
2017-08-27T17:57:35.394Z,61.93
2017-08-27T18:00:01.167Z,62.26
2017-08-27T18:02:26.938Z,62.93
2017-08-27T18:04:52.735Z,63.07
2017-08-27T18:07:18.500Z,63.34
2017-08-27T18:09:44.264Z,63.67
2017-08-27T18:12:10.062Z,63.69
2017-08-27T18:14:35.831Z,64.76
2017-08-27T18:17:01.691Z,65.30
2017-08-27T18:19:27.467Z,66.02
2017-08-27T18:21:53.291Z,65.12
2017-08-27T18:24:19.080Z,65.76
2017-08-27T18:26:44.947Z,65.92
2017-08-27T18:29:10.767Z,66.20
2017-08-27T18:31:36.599Z,66.75
2017-08-27T18:34:02.401Z,67.51
2017-08-27T18:36:28.191Z,68.02
2017-08-27T18:38:53.975Z,68.40
2017-08-27T18:41:19.740Z,68.93
2017-08-27T18:43:45.519Z,69.34
2017-08-27T18:46:11.306Z,69.72
2017-08-27T18:48:37.114Z,70.33
2017-08-27T18:51:02.870Z,70.82
2017-08-27T18:53:28.670Z,70.75
2017-08-27T18:55:54.439Z,71.11
2017-08-27T18:58:20.213Z,71.40
2017-08-27T19:00:46.003Z,71.69
2017-08-27T19:03:11.801Z,72.17
2017-08-27T19:05:37.598Z,72.85
2017-08-27T19:08:03.344Z,73.34
2017-08-27T19:10:29.107Z,73.96
2017-08-27T19:12:54.902Z,74.13
2017-08-27T19:15:20.654Z,74.51
2017-08-27T19:17:46.438Z,74.12
2017-08-27T19:20:12.202Z,74.13
2017-08-27T19:22:38.819Z,74.10
2017-08-27T19:25:04.608Z,74.27
2017-08-27T19:27:30.411Z,74.46
2017-08-27T19:29:56.194Z,74.25
2017-08-27T19:32:22.019Z,75.16
2017-08-27T19:34:48.891Z,77.28
2017-08-27T19:37:14.638Z,76.92
2017-08-27T19:39:40.447Z,77.50
2017-08-27T19:42:06.245Z,77.42
2017-08-27T19:44:32.033Z,77.74
2017-08-27T19:46:57.787Z,78.97
2017-08-27T19:49:23.580Z,81.36
2017-08-27T19:51:49.417Z,82.02
2017-08-27T19:54:15.202Z,82.35
2017-08-27T19:56:40.991Z,81.08
2017-08-27T19:59:06.772Z,81.94
2017-08-27T20:01:32.563Z,81.25
2017-08-27T20:03:58.361Z,81.19
2017-08-27T20:06:24.111Z,81.70
2017-08-27T20:08:49.864Z,80.92
2017-08-27T20:11:15.626Z,81.05
2017-08-27T20:13:41.395Z,81.58
2017-08-27T20:16:07.171Z,82.34
2017-08-27T20:18:33.035Z,82.86
2017-08-27T20:20:58.806Z,82.50
2017-08-27T20:23:24.551Z,82.14
2017-08-27T20:25:50.339Z,82.53
2017-08-27T20:28:16.078Z,81.94
2017-08-27T20:30:41.825Z,81.82
2017-08-27T20:33:07.621Z,83.59
2017-08-27T20:35:33.471Z,82.97
2017-08-27T20:37:59.222Z,84.89
2017-08-27T20:40:25.004Z,83.98
2017-08-27T20:42:50.767Z,84.46
2017-08-27T20:45:16.521Z,83.30
2017-08-27T20:47:42.339Z,82.66
2017-08-27T20:50:08.143Z,82.73
2017-08-27T20:52:33.940Z,82.41
2017-08-27T20:54:59.746Z,83.53
2017-08-27T20:57:25.519Z,83.05
2017-08-27T20:59:51.267Z,83.82
2017-08-27T21:02:17.095Z,83.03
2017-08-27T21:04:42.875Z,83.90
2017-08-27T21:07:08.635Z,83.52
2017-08-27T21:09:34.449Z,83.60
2017-08-27T21:12:00.201Z,83.17
2017-08-27T21:14:25.966Z,83.33
2017-08-27T21:16:51.791Z,83.42
2017-08-27T21:19:17.576Z,82.98
2017-08-27T21:21:43.336Z,83.92
2017-08-27T21:24:09.211Z,83.04
2017-08-27T21:26:34.973Z,84.58
2017-08-27T21:29:00.731Z,83.15
2017-08-27T21:31:26.502Z,83.44
2017-08-27T21:33:52.263Z,84.31
2017-08-27T21:36:18.042Z,84.43
2017-08-27T21:38:43.826Z,85.14
2017-08-27T21:41:09.580Z,85.43
2017-08-27T21:43:35.323Z,83.71
2017-08-27T21:46:01.127Z,85.19
2017-08-27T21:48:26.870Z,84.88
2017-08-27T21:50:52.646Z,84.40
2017-08-27T21:53:18.400Z,84.16
2017-08-27T21:55:44.183Z,83.54
2017-08-27T21:58:09.919Z,84.10
2017-08-27T22:00:35.667Z,83.80
2017-08-27T22:03:01.478Z,83.61
2017-08-27T22:05:27.268Z,83.21
2017-08-27T22:07:53.079Z,83.76
2017-08-27T22:10:18.867Z,83.83
2017-08-27T22:12:44.640Z,83.52
2017-08-27T22:15:10.438Z,84.26
2017-08-27T22:17:36.180Z,86.38
2017-08-27T22:20:01.943Z,86.63
2017-08-27T22:22:27.722Z,86.73
2017-08-27T22:24:53.554Z,85.69
2017-08-27T22:27:19.347Z,84.53
2017-08-27T22:29:45.130Z,84.14
2017-08-27T22:32:10.879Z,84.28
2017-08-27T22:34:36.679Z,83.72
2017-08-27T22:37:02.443Z,84.23
2017-08-27T22:39:28.204Z,85.82
2017-08-27T22:41:54.028Z,85.53
2017-08-27T22:44:19.775Z,85.41
2017-08-27T22:46:45.518Z,85.19
2017-08-27T22:49:11.310Z,84.41
2017-08-27T22:51:37.163Z,84.26
2017-08-27T22:54:03.001Z,83.91
2017-08-27T22:56:29.195Z,83.78
2017-08-27T22:58:55.022Z,83.82
2017-08-27T23:01:20.808Z,84.41
2017-08-27T23:03:46.598Z,84.78
2017-08-27T23:06:12.346Z,84.85
2017-08-27T23:08:38.094Z,84.71
2017-08-27T23:11:03.899Z,84.79
2017-08-27T23:13:29.669Z,84.66
2017-08-27T23:15:55.456Z,84.77
2017-08-27T23:18:21.311Z,85.07
2017-08-27T23:20:47.093Z,86.31
2017-08-27T23:23:12.878Z,85.67
2017-08-27T23:25:38.655Z,85.17
2017-08-27T23:28:04.423Z,85.30
2017-08-27T23:30:30.203Z,85.76
2017-08-27T23:32:55.936Z,85.56
2017-08-27T23:35:21.723Z,85.33
2017-08-27T23:37:47.519Z,85.14
2017-08-27T23:40:13.297Z,85.07
2017-08-27T23:42:39.069Z,84.41
2017-08-27T23:45:04.820Z,84.85
2017-08-27T23:47:30.582Z,85.13
2017-08-27T23:49:56.367Z,85.56
2017-08-27T23:52:22.131Z,85.50
2017-08-27T23:54:48.721Z,85.38
2017-08-27T23:57:14.734Z,84.87
2017-08-27T23:59:40.515Z,85.04
